Latest Weather Observations for Gladstone Airport

IDQ60801

Issued at 4:42 am EST Saturday 18 August 2018 (issued every 10 minutes, with the page automatically refreshed every 10 minutes)

About weather observations | Map of weather stations | Latest weather observations for QLD | Other Formats
Station Details ID: 039326 Name: GLADSTONE AIRPORT Lat: -23.87 Lon: 151.22 Height: 16.6 m
Data from the previous 72 hours. | See also: Recent months at Gladstone Airport
Date/Time
EST
Temp
°C
App
Temp
°C
Dew
Point
°C
Rel
Hum
%
Delta-T
°C
Wind Press
QNH
hPa
Press
MSL
hPa
Rain since
9am
mm
Dir  Spd
km/h
Gust
km/h
Spd
kts
Gust
kts
18/04:30am 13.4 11.4 10.0 80 1.8 SW 11 15 6 8 1015.9 1015.9 0.0
18/04:00am 13.3 11.5 11.0 86 1.2 SW 11 15 6 8 1015.7 1015.7 0.0
18/03:30am 12.8 12.0 9.8 82 1.5 SW 4 7 2 4 1015.5 1015.5 0.0
18/03:00am 12.9 11.9 10.4 85 1.3 SSW 6 11 3 6 1015.5 1015.5 0.0
18/02:30am 13.0 12.4 10.4 84 1.3 S 4 11 2 6 1015.6 1015.6 0.0
18/02:00am 13.1 12.0 10.1 82 1.5 S 6 11 3 6 1015.7 1015.7 0.0
18/01:30am 13.2 12.1 9.8 80 1.7 S 6 11 3 6 1015.9 1015.9 0.0
18/01:00am 13.7 13.8 10.3 80 1.8 CALM 0 0 0 0 1015.7 1015.7 0.0
18/12:30am 14.3 14.5 10.5 78 2.0 CALM 0 0 0 0 1015.9 1015.9 0.0
18/12:00am 14.9 15.0 10.1 73 2.5 CALM 0 0 0 0 1015.9 1015.9 0.0
 
Date/Time
EST
Temp
°C
App
Temp
°C
Dew
Point
°C
Rel
Hum
%
Delta-T
°C
Wind Press
QNH
hPa
Press
MSL
hPa
Rain since
9am
mm
Dir  Spd
km/h
Gust
km/h
Spd
kts
Gust
kts
17/11:30pm 16.0 16.0 11.0 72 2.7 S 2 6 1 3 1015.9 1015.9 0.0
17/11:00pm 16.2 15.3 11.4 73 2.6 SSE 7 11 4 6 1015.9 1015.9 0.0
17/10:30pm 16.6 15.9 13.1 80 2.0 WSW 9 11 5 6 1015.7 1015.7 0.0
17/10:00pm 19.2 19.7 15.5 79 2.2 NNW 7 11 4 6 1015.6 1015.6 0.0
17/09:30pm 19.9 20.3 16.2 79 2.2 N 9 11 5 6 1015.7 1015.7 0.0
17/09:00pm 19.9 20.4 15.1 74 2.8 N 6 9 3 5 1015.3 1015.3 0.0
17/08:30pm 20.4 19.7 13.1 63 4.2 N 9 13 5 7 1015.0 1015.0 0.0
17/08:00pm 20.5 19.1 10.9 54 5.3 NNW 9 13 5 7 1014.7 1014.7 0.0
17/07:30pm 20.8 19.2 10.3 51 5.7 NNW 9 15 5 8 1014.3 1014.3 0.0
17/07:00pm 21.7 19.3 9.9 47 6.4 NNW 13 19 7 10 1013.8 1013.8 0.0
17/06:30pm 22.7 19.3 9.1 42 7.3 NNW 17 19 9 10 1013.3 1013.3 0.0
17/06:00pm 23.5 21.5 7.2 35 8.5 NNW 7 11 4 6 1013.1 1013.1 0.0
17/05:30pm 25.0 21.7 6.2 30 9.7 N 13 17 7 9 1012.7 1012.7 0.0
17/05:00pm 26.0 23.1 8.0 32 9.6 NNE 13 20 7 11 1012.5 1012.5 0.0
17/04:30pm 26.7 22.8 7.2 29 10.3 NNE 17 26 9 14 1012.2 1012.2 0.0
17/04:00pm 27.3 22.6 6.1 26 11.1 NNE 20 28 11 15 1012.0 1012.0 0.0
17/03:30pm 27.3 22.4 6.7 27 10.9 NE 22 28 12 15 1012.0 1012.0 0.0
17/03:00pm 27.4 23.8 10.6 35 9.5 NE 20 28 11 15 1012.1 1012.1 0.0
17/02:30pm 27.2 24.0 10.0 34 9.6 NE 17 22 9 12 1012.3 1012.3 0.0
17/02:00pm 26.5 24.2 11.8 40 8.4 NE 15 20 8 11 1012.8 1012.8 0.0
17/01:30pm 26.4 23.8 12.1 41 8.2 NNE 17 20 9 11 1013.2 1013.2 0.0
17/01:00pm 27.3 24.0 9.6 33 9.8 NNW 17 22 9 12 1013.6 1013.6 0.0
17/12:30pm 26.4 24.1 11.7 40 8.4 NNW 15 20 8 11 1014.1 1014.1 0.0
17/12:00pm 25.7 24.0 12.5 44 7.6 NNW 13 20 7 11 1014.7 1014.7 0.0
17/11:30am 24.5 23.2 12.5 47 6.9 N 11 17 6 9 1015.3 1015.3 0.0
17/11:00am 24.3 23.2 11.9 45 7.0 NW 9 15 5 8 1015.8 1015.8 0.0
17/10:30am 23.0 22.3 12.0 50 6.2 WSW 7 13 4 7 1016.3 1016.3 0.0
17/10:00am 21.9 20.6 12.5 55 5.3 SW 11 19 6 10 1016.7 1016.7 0.0
17/09:30am 19.8 19.6 13.7 68 3.5 SSW 7 11 4 6 1016.8 1016.8 0.0
17/09:00am 18.2 18.2 14.1 77 2.3 SSW 7 11 4 6 1016.8 1016.8 0.0
17/08:30am 15.6 14.6 13.3 86 1.3 SW 11 15 6 8 1016.7 1016.7 0.0
17/08:02am 13.8 13.0 12.9 94 0.5 SSW 9 13 5 7 1016.7 1016.7 0.0
17/08:00am 13.6 12.7 12.7 94 0.5 SSW 9 13 5 7 1016.7 1016.7 0.0
17/07:59am 13.6 12.7 12.7 94 0.5 SSW 9 13 5 7 1016.7 1016.7 0.0
17/07:30am 12.1 11.4 11.3 95 0.4 SW 6 9 3 5 1016.5 1016.5 0.0
17/07:00am 11.8 10.0 10.9 94 0.5 SW 11 15 6 8 1016.1 1016.1 0.0
17/06:30am 12.2 10.5 11.3 94 0.5 SSW 11 17 6 9 1015.9 1015.9 0.0
17/06:00am 12.6 11.4 11.7 94 0.5 SSW 9 13 5 7 1015.5 1015.5 0.0
17/05:44am 12.5 11.3 11.6 94 0.5 SSW 9 13 5 7 1015.3 1015.3 0.0
17/05:30am 12.5 10.9 11.6 94 0.5 SSW 11 17 6 9 1015.2 1015.2 0.0
17/05:10am 12.4 10.3 11.1 92 0.7 SW 13 17 7 9 1015.0 1015.0 0.0
17/05:00am 12.6 10.5 11.2 91 0.7 SW 13 17 7 9 1014.9 1014.9 0.0
17/04:30am 13.0 11.0 11.4 90 0.8 SW 13 15 7 8 1014.7 1014.7 0.0
17/04:07am 13.4 11.6 12.1 92 0.7 SW 13 15 7 8 1014.6 1014.6 0.0
17/04:00am 13.5 12.5 12.4 93 0.6 SW 9 13 5 7 1014.6 1014.6 0.0
17/03:45am 13.8 12.9 12.7 93 0.6 SW 9 13 5 7 1014.6 1014.6 0.0
17/03:30am 12.5 12.7 10.4 87 1.1 CALM 0 0 0 0 1014.7 1014.7 0.0
17/03:00am 13.3 12.7 11.7 90 0.9 SSW 6 9 3 5 1014.6 1014.6 0.0
17/02:30am 13.4 13.8 11.3 87 1.1 CALM 0 0 0 0 1014.7 1014.7 0.0
17/02:00am 14.1 14.8 12.3 89 1.0 CALM 0 0 0 0 1015.0 1015.0 0.0
17/01:30am 14.4 15.3 12.8 90 0.9 CALM 0 6 0 3 1015.1 1015.1 0.0
17/01:00am 14.5 15.3 12.5 88 1.1 CALM 0 0 0 0 1015.2 1015.2 0.0
17/12:30am 14.6 15.4 12.5 87 1.1 CALM 0 0 0 0 1015.2 1015.2 0.0
17/12:00am 14.8 15.6 12.5 86 1.3 CALM 0 0 0 0 1015.4 1015.4 0.0
 
Date/Time
EST
Temp
°C
App
Temp
°C
Dew
Point
°C
Rel
Hum
%
Delta-T
°C
Wind Press
QNH
hPa
Press
MSL
hPa
Rain since
9am
mm
Dir  Spd
km/h
Gust
km/h
Spd
kts
Gust
kts
16/11:30pm 15.2 16.2 13.1 87 1.2 CALM 0 0 0 0 1015.4 1015.4 0.0
16/11:00pm 15.6 16.6 13.3 86 1.3 CALM 0 0 0 0 1015.6 1015.6 0.0
16/10:30pm 16.1 17.2 13.4 84 1.5 CALM 0 0 0 0 1015.7 1015.7 0.0
16/10:00pm 17.0 18.2 13.9 82 1.8 CALM 0 0 0 0 1015.6 1015.6 0.0
16/09:30pm 18.1 18.1 15.2 83 1.7 NW 9 11 5 6 1015.4 1015.4 0.0
16/09:00pm 18.6 18.9 14.9 79 2.2 NNW 7 11 4 6 1015.2 1015.2 0.0
16/08:30pm 18.9 19.0 14.4 75 2.6 N 7 9 4 5 1015.2 1015.2 0.0
16/08:00pm 19.4 19.0 14.2 72 3.0 NNW 9 15 5 8 1015.0 1015.0 0.0
16/07:30pm 19.8 19.4 14.0 69 3.3 NNW 9 13 5 7 1014.7 1014.7 0.0
16/07:00pm 20.5 19.1 13.5 64 4.0 N 13 20 7 11 1014.3 1014.3 0.0
16/06:30pm 20.4 19.8 13.6 65 3.9 N 9 11 5 6 1014.0 1014.0 0.0
16/06:00pm 21.5 20.2 12.6 57 5.0 NNE 11 17 6 9 1013.7 1013.7 0.0
16/05:30pm 22.4 20.3 12.4 53 5.7 N 15 20 8 11 1013.3 1013.3 0.0
16/05:00pm 23.3 20.9 12.6 51 6.1 NE 17 24 9 13 1013.1 1013.1 0.0
16/04:30pm 24.3 21.9 12.6 48 6.7 NE 17 24 9 13 1013.0 1013.0 0.0
16/04:00pm 24.7 21.5 12.0 45 7.2 NE 20 28 11 15 1013.2 1013.2 0.0
16/03:30pm 25.6 22.2 11.4 41 8.0 NE 20 28 11 15 1013.1 1013.1 0.0
16/03:00pm 26.2 23.7 11.2 39 8.5 NNE 15 20 8 11 1013.2 1013.2 0.0
16/02:30pm 26.5 23.1 7.5 30 10.1 N 15 20 8 11 1013.4 1013.4 0.0
16/02:00pm 25.9 22.4 7.0 30 9.9 NNE 15 22 8 12 1013.7 1013.7 0.0
16/01:30pm 26.0 21.8 7.6 31 9.8 NNE 19 22 10 12 1014.4 1014.4 0.0
16/01:00pm 25.9 21.9 8.4 33 9.4 NNW 19 22 10 12 1014.8 1014.8 0.0
16/12:30pm 24.8 21.4 9.1 37 8.5 N 17 22 9 12 1015.7 1015.7 0.0
16/12:00pm 25.3 22.3 9.2 36 8.8 NNW 15 22 8 12 1016.3 1016.3 0.0
16/11:30am 24.7 22.8 10.6 41 7.8 NNW 11 17 6 9 1017.0 1017.0 0.0
16/11:00am 22.9 21.1 12.2 51 6.1 N 13 17 7 9 1017.6 1017.6 0.0
16/10:30am 22.5 22.0 12.7 54 5.6 N 7 11 4 6 1018.1 1018.1 0.0
16/10:00am 21.5 20.5 12.4 56 5.1 WNW 9 13 5 7 1018.3 1018.3 0.0
16/09:30am 19.9 19.4 12.7 63 4.1 SW 7 11 4 6 1018.4 1018.4 0.0
16/09:00am 18.1 17.2 12.5 70 3.1 SSW 9 13 5 7 1018.7 1018.7 0.0
16/08:30am 15.9 14.0 11.7 76 2.3 SW 13 19 7 10 1018.5 1018.5 0.0
16/08:00am 14.1 13.0 10.7 80 1.8 SW 7 11 4 6 1018.5 1018.5 0.0
16/07:30am 12.7 11.1 10.1 84 1.3 SW 9 15 5 8 1018.4 1018.4 0.0
16/07:00am 11.7 9.6 9.8 88 1.0 SSW 11 17 6 9 1018.0 1018.0 0.0
16/06:30am 11.1 8.9 9.5 90 0.8 SSW 11 17 6 9 1017.9 1017.9 0.0
16/06:00am 11.1 8.9 9.5 90 0.8 SW 11 15 6 8 1017.5 1017.5 0.0
16/05:30am 10.8 9.5 9.1 89 0.8 SSW 6 7 3 4 1017.2 1017.2 0.0
16/05:00am 11.0 9.2 9.4 90 0.8 SW 9 11 5 6 1017.3 1017.3 0.0
16/04:30am 10.9 9.1 9.3 90 0.8 SSW 9 13 5 7 1017.5 1017.5 0.0
16/04:00am 10.7 9.1 8.6 87 1.0 SSW 7 11 4 6 1017.5 1017.5 0.0
16/03:30am 11.0 8.7 8.9 87 1.0 SSW 11 17 6 9 1017.6 1017.6 0.0
16/03:00am 12.1 10.1 10.3 89 0.9 SSW 11 13 6 7 1017.6 1017.6 0.0
16/02:30am 11.9 10.8 10.0 88 1.0 SSW 6 11 3 6 1017.6 1017.6 0.0
16/02:00am 12.2 10.6 10.3 88 1.0 SSW 9 13 5 7 1017.9 1017.9 0.0
16/01:30am 13.0 11.7 11.1 88 1.0 SW 9 15 5 8 1018.2 1018.2 0.0
16/01:00am 13.4 12.5 11.3 87 1.1 SW 7 11 4 6 1018.4 1018.4 0.0
16/12:30am 13.8 12.2 11.7 87 1.1 SSW 11 13 6 7 1018.6 1018.6 0.0
16/12:00am 12.8 13.0 10.5 86 1.2 CALM 0 6 0 3 1018.8 1018.8 0.0
 
Date/Time
EST
Temp
°C
App
Temp
°C
Dew
Point
°C
Rel
Hum
%
Delta-T
°C
Wind Press
QNH
hPa
Press
MSL
hPa
Rain since
9am
mm
Dir  Spd
km/h
Gust
km/h
Spd
kts
Gust
kts
15/11:30pm 12.8 12.9 10.0 83 1.4 CALM 0 0 0 0 1018.8 1018.8 0.0
15/11:00pm 13.4 13.7 10.8 84 1.4 CALM 0 0 0 0 1018.8 1018.8 0.0
15/10:30pm 13.8 14.1 11.0 83 1.5 CALM 0 0 0 0 1019.1 1019.1 0.0
15/10:00pm 14.7 13.9 11.8 83 1.6 SW 7 9 4 5 1019.3 1019.3 0.0
15/09:30pm 14.9 15.0 11.5 80 1.8 SSW 2 6 1 3 1019.4 1019.4 0.0
15/09:00pm 15.5 16.1 11.9 79 1.9 CALM 0 0 0 0 1019.6 1019.6 0.0
15/08:30pm 16.3 16.9 11.9 75 2.4 CALM 0 0 0 0 1019.4 1019.4 0.0
15/08:00pm 17.9 17.4 12.8 72 2.8 N 7 9 4 5 1019.3 1019.3 0.0
15/07:30pm 17.9 17.4 12.8 72 2.9 N 7 9 4 5 1019.2 1019.2 0.0
15/07:00pm 18.3 17.4 12.5 69 3.2 N 9 11 5 6 1019.1 1019.1 0.0
15/06:30pm 18.9 18.0 12.6 67 3.5 N 9 13 5 7 1018.9 1018.9 0.0
15/06:00pm 19.5 17.6 11.8 61 4.3 NNE 13 17 7 9 1018.7 1018.7 0.0
15/05:30pm 20.1 17.2 11.1 56 4.9 NNE 17 22 9 12 1018.7 1018.7 0.0
15/05:00pm 20.9 17.5 10.7 52 5.6 NE 19 24 10 13 1018.6 1018.6 0.0
15/04:30pm 21.6 18.5 10.4 49 6.1 NNE 17 26 9 14 1018.6 1018.6 0.0
15/04:00pm 22.2 19.2 10.7 48 6.3 NE 17 24 9 13 1018.9 1018.9 0.0
15/03:30pm 22.1 18.3 9.9 46 6.6 NE 20 26 11 14 1018.8 1018.8 0.0
15/03:00pm 22.5 17.9 6.7 36 8.1 NE 20 24 11 13 1018.9 1018.9 0.0
15/02:30pm 22.4 18.5 8.5 41 7.4 NE 19 26 10 14 1019.1 1019.1 0.0
15/02:00pm 23.8 20.4 9.0 39 7.9 NE 17 24 9 13 1019.5 1019.5 0.0
15/01:30pm 23.1 19.6 8.8 40 7.6 NNE 17 22 9 12 1019.8 1019.8 0.0
15/01:00pm 23.1 20.1 9.1 41 7.5 NE 15 22 8 12 1020.3 1020.3 0.0
15/12:30pm 23.1 19.7 9.1 41 7.5 NNE 17 24 9 13 1020.9 1020.9 0.0
15/12:00pm 23.1 20.1 7.6 37 8.1 NNE 13 19 7 10 1021.4 1021.4 0.0
15/11:30am 22.4 19.3 8.9 42 7.2 NE 15 22 8 12 1021.9 1021.9 0.0
15/11:00am 22.3 20.2 9.8 45 6.7 E 11 17 6 9 1022.3 1022.3 0.0
15/10:30am 21.5 20.2 10.0 48 6.2 WSW 7 9 4 5 1022.7 1022.7 0.0
15/10:00am 20.6 19.4 10.4 52 5.5 SW 7 13 4 7 1023.0 1023.0 0.0
15/09:30am 19.3 17.0 8.9 51 5.4 SW 11 17 6 9 1023.1 1023.1 0.0
15/09:00am 17.0 14.4 7.6 54 4.7 SW 11 15 6 8 1023.1 1023.1 0.0
15/08:30am 14.8 11.6 6.9 59 3.9 SSW 13 17 7 9 1023.0 1023.0 0.0
15/08:00am 12.7 9.3 6.1 64 3.1 SW 13 19 7 10 1022.8 1022.8 0.0
15/07:30am 11.0 7.5 5.3 68 2.6 SSW 13 17 7 9 1022.5 1022.5 0.0
15/07:00am 9.4 5.7 4.6 72 2.1 SW 13 19 7 10 1022.4 1022.4 0.0
15/06:30am 8.9 5.6 4.5 74 1.9 SW 11 17 6 9 1022.3 1022.3 0.0
15/06:00am 9.2 5.9 4.4 72 2.1 SW 11 17 6 9 1022.0 1022.0 0.0
15/05:30am 10.0 6.4 4.8 70 2.3 SSW 13 17 7 9 1021.7 1021.7 0.0
15/05:00am 9.9 6.2 4.7 70 2.3 SSW 13 17 7 9 1021.5 1021.5 0.0

Other Formats:

Comma delimited format used in spreadsheet applications
http://www.bom.gov.au/fwo/IDQ60801/IDQ60801.94381.axf

JavaScript Object Notation format (JSON) in row-major order
http://www.bom.gov.au/fwo/IDQ60801/IDQ60801.94381.json